createdAt,value
2019-06-01T00:02:08.848Z,97.30
2019-06-01T00:04:35.598Z,97.30
2019-06-01T00:07:01.772Z,97.50
2019-06-01T00:09:29.092Z,96.90
2019-06-01T00:11:55.410Z,97.40
2019-06-01T00:14:21.839Z,97.50
2019-06-01T00:16:48.159Z,97.20
2019-06-01T00:19:14.355Z,97.70
2019-06-01T00:21:41.183Z,98.00
2019-06-01T00:24:07.556Z,97.90
2019-06-01T00:26:33.764Z,96.50
2019-06-01T00:29:00.016Z,98.30
2019-06-01T00:31:26.218Z,97.50
2019-06-01T00:33:52.411Z,97.80
2019-06-01T00:36:19.027Z,98.00
2019-06-01T00:38:45.736Z,98.90
2019-06-01T00:41:12.032Z,98.90
2019-06-01T00:43:38.322Z,98.30
2019-06-01T00:46:04.474Z,98.30
2019-06-01T00:48:30.689Z,98.40
2019-06-01T00:50:56.910Z,98.60
2019-06-01T00:53:23.080Z,98.40
2019-06-01T00:55:49.474Z,98.90
2019-06-01T00:58:15.841Z,98.90
2019-06-01T01:00:44.171Z,98.80
2019-06-01T01:03:10.183Z,98.30
2019-06-01T01:05:36.413Z,98.40
2019-06-01T01:08:02.954Z,98.40
2019-06-01T01:10:29.715Z,98.20
2019-06-01T01:13:03.294Z,97.80
2019-06-01T01:15:29.447Z,98.30
2019-06-01T01:17:56.157Z,99.00
2019-06-01T01:20:22.615Z,98.70
2019-06-01T01:22:50.154Z,98.90
2019-06-01T01:25:16.475Z,98.40
2019-06-01T01:27:42.694Z,97.90
2019-06-01T01:30:09.256Z,98.40
2019-06-01T01:32:35.459Z,99.50
2019-06-01T01:35:03.263Z,98.20
2019-06-01T01:37:29.515Z,99.30
2019-06-01T01:39:56.287Z,98.80
2019-06-01T01:42:22.663Z,99.00
2019-06-01T01:44:48.813Z,99.50
2019-06-01T01:47:15.325Z,99.30
2019-06-01T01:49:41.515Z,98.10
2019-06-01T01:52:07.764Z,99.30
2019-06-01T01:54:33.919Z,99.40
2019-06-01T01:57:00.094Z,99.70
2019-06-01T01:59:27.383Z,99.70
2019-06-01T02:01:54.644Z,99.90
2019-06-01T02:04:20.978Z,99.90
2019-06-01T02:06:47.229Z,99.90
2019-06-01T02:09:13.417Z,99.90
2019-06-01T02:11:39.853Z,99.90
2019-06-01T02:14:06.257Z,99.90
2019-06-01T02:16:32.523Z,99.70
2019-06-01T02:18:58.883Z,99.90
2019-06-01T02:21:25.579Z,99.90
2019-06-01T02:23:52.927Z,99.90
2019-06-01T02:26:28.374Z,99.50
2019-06-01T02:28:57.361Z,99.90
2019-06-01T02:31:40.549Z,99.90
2019-06-01T02:33:58.758Z,99.90
2019-06-01T02:36:26.074Z,99.90
2019-06-01T02:38:54.606Z,99.90
2019-06-01T02:41:22.964Z,99.90
2019-06-01T02:43:49.121Z,99.70
2019-06-01T02:46:15.263Z,99.90
2019-06-01T02:48:42.478Z,99.90
2019-06-01T02:51:09.152Z,99.90
2019-06-01T02:53:37.447Z,99.90
2019-06-01T02:56:04.415Z,99.90
2019-06-01T02:58:30.619Z,99.90
2019-06-01T03:01:18.947Z,99.90
2019-06-01T03:03:45.690Z,99.90
2019-06-01T03:06:15.920Z,99.90
2019-06-01T03:08:42.507Z,99.90
2019-06-01T03:11:12.141Z,99.90
2019-06-01T03:13:40.764Z,99.90
2019-06-01T03:16:09.007Z,99.90
2019-06-01T03:18:38.678Z,99.90
2019-06-01T03:21:08.483Z,99.90
2019-06-01T03:23:38.397Z,99.90
2019-06-01T03:26:08.828Z,99.90
2019-06-01T03:28:39.740Z,99.90
2019-06-01T03:31:08.895Z,99.90
2019-06-01T03:33:38.639Z,99.90
2019-06-01T03:36:06.828Z,99.90
2019-06-01T03:38:40.338Z,99.90
2019-06-01T03:41:08.294Z,99.90
2019-06-01T03:43:34.947Z,99.90
2019-06-01T03:46:02.233Z,99.90
2019-06-01T03:48:28.770Z,99.90
2019-06-01T03:50:56.249Z,99.90
2019-06-01T03:53:23.103Z,99.90
2019-06-01T03:55:49.464Z,99.90
2019-06-01T03:58:15.744Z,99.90
2019-06-01T04:00:41.911Z,99.90
2019-06-01T04:03:09.225Z,99.90
2019-06-01T04:05:37.822Z,99.90
2019-06-01T04:08:03.976Z,99.90
2019-06-01T04:10:31.112Z,99.90
2019-06-01T04:12:57.261Z,99.90
2019-06-01T04:15:24.218Z,99.90
2019-06-01T04:17:52.588Z,99.90
2019-06-01T04:20:18.845Z,99.90
2019-06-01T04:22:44.992Z,99.90
2019-06-01T04:25:12.228Z,99.90
2019-06-01T04:27:38.712Z,99.90
2019-06-01T04:30:09.460Z,99.90
2019-06-01T04:32:49.285Z,99.90
2019-06-01T04:35:09.009Z,99.90
2019-06-01T04:37:36.397Z,99.90
2019-06-01T04:40:05.310Z,99.90
2019-06-01T04:42:32.579Z,99.90
2019-06-01T04:44:58.743Z,99.90
2019-06-01T04:47:25.117Z,99.90
2019-06-01T04:49:53.244Z,99.90
2019-06-01T04:52:19.479Z,99.90
2019-06-01T04:54:45.724Z,99.90
2019-06-01T04:57:13.036Z,99.90
2019-06-01T04:59:39.307Z,99.90
2019-06-01T05:02:05.754Z,99.90
2019-06-01T05:04:34.236Z,99.90
2019-06-01T05:07:00.511Z,99.90
2019-06-01T05:09:26.728Z,99.90
2019-06-01T05:11:53.704Z,99.90
2019-06-01T05:14:20.183Z,99.90
2019-06-01T05:16:46.358Z,99.90
2019-06-01T05:19:12.849Z,99.90
2019-06-01T05:21:39.467Z,99.90
2019-06-01T05:24:06.657Z,99.90
2019-06-01T05:26:33.929Z,99.90
2019-06-01T05:29:00.073Z,99.90
2019-06-01T05:31:26.216Z,98.60
2019-06-01T05:33:54.354Z,97.60
2019-06-01T05:36:20.734Z,96.70
2019-06-01T05:38:48.510Z,96.40
2019-06-01T05:41:14.966Z,95.40
2019-06-01T05:43:41.249Z,94.90
2019-06-01T05:46:08.487Z,94.00
2019-06-01T05:48:34.669Z,93.50
2019-06-01T05:51:01.099Z,93.20
2019-06-01T05:53:27.234Z,92.60
2019-06-01T05:55:53.455Z,91.70
2019-06-01T05:58:19.829Z,91.00
2019-06-01T06:00:46.535Z,90.70
2019-06-01T06:03:15.514Z,90.90
2019-06-01T06:05:41.287Z,90.20
2019-06-01T06:08:09.080Z,89.70
2019-06-01T06:10:36.367Z,89.00
2019-06-01T06:13:03.849Z,87.40
2019-06-01T06:15:30.075Z,85.90
2019-06-01T06:17:56.227Z,86.20
2019-06-01T06:20:24.582Z,83.80
2019-06-01T06:22:50.824Z,83.90
2019-06-01T06:25:18.812Z,82.30
2019-06-01T06:27:44.968Z,82.00
2019-06-01T06:30:12.737Z,83.50
2019-06-01T06:32:39.370Z,82.50
2019-06-01T06:35:07.485Z,83.80
2019-06-01T06:37:35.506Z,83.00
2019-06-01T06:40:05.474Z,82.20
2019-06-01T06:42:31.617Z,82.80
2019-06-01T06:44:57.767Z,82.20
2019-06-01T06:47:25.018Z,83.50
2019-06-01T06:49:53.416Z,83.60
2019-06-01T06:52:19.626Z,81.50
2019-06-01T06:54:45.866Z,80.80
2019-06-01T06:57:12.020Z,81.50
2019-06-01T06:59:39.529Z,81.10
2019-06-01T07:02:05.676Z,79.20
2019-06-01T07:04:31.860Z,77.70
2019-06-01T07:06:58.015Z,75.10
2019-06-01T07:09:24.177Z,73.50
2019-06-01T07:11:50.462Z,74.00
2019-06-01T07:14:16.614Z,72.50
2019-06-01T07:16:42.847Z,70.90
2019-06-01T07:19:09.078Z,71.40
2019-06-01T07:21:35.487Z,70.40
2019-06-01T07:24:01.933Z,71.90
2019-06-01T07:26:29.324Z,72.30
2019-06-01T07:28:55.574Z,72.50
2019-06-01T07:31:22.071Z,71.60
2019-06-01T07:33:48.312Z,72.40
2019-06-01T07:36:14.634Z,72.40
2019-06-01T07:38:40.836Z,71.90
2019-06-01T07:41:06.990Z,70.40
2019-06-01T07:43:35.305Z,71.40
2019-06-01T07:46:01.469Z,71.00
2019-06-01T07:48:29.086Z,71.50
2019-06-01T07:50:55.598Z,72.40
2019-06-01T07:53:23.913Z,72.80
2019-06-01T07:55:49.821Z,71.40
2019-06-01T07:58:15.970Z,71.60
2019-06-01T08:00:42.414Z,70.40
2019-06-01T08:03:08.670Z,69.10
2019-06-01T08:05:35.097Z,68.20
2019-06-01T08:08:01.275Z,67.90
2019-06-01T08:10:29.534Z,67.80
2019-06-01T08:12:55.855Z,66.90
2019-06-01T08:15:23.421Z,66.40
2019-06-01T08:17:50.246Z,67.40
2019-06-01T08:20:16.491Z,67.60
2019-06-01T08:22:42.648Z,66.10
2019-06-01T08:25:09.081Z,64.10
2019-06-01T08:27:35.604Z,62.40
2019-06-01T08:30:04.441Z,61.70
2019-06-01T08:32:31.007Z,63.90
2019-06-01T08:35:07.765Z,63.40
2019-06-01T08:37:25.284Z,60.90
2019-06-01T08:39:51.479Z,63.30
2019-06-01T08:42:17.647Z,62.80
2019-06-01T08:44:44.105Z,63.80
2019-06-01T08:47:10.915Z,64.60
2019-06-01T08:49:37.088Z,65.10
2019-06-01T08:52:03.431Z,61.50
2019-06-01T08:54:30.290Z,60.80
2019-06-01T08:56:56.822Z,62.50
2019-06-01T08:59:24.184Z,63.70
2019-06-01T09:01:50.425Z,63.00
2019-06-01T09:04:16.833Z,62.50
2019-06-01T09:06:42.983Z,63.20
2019-06-01T09:09:11.761Z,62.40
2019-06-01T09:11:37.229Z,62.30
2019-06-01T09:14:03.600Z,60.50
2019-06-01T09:16:29.899Z,61.30
2019-06-01T09:18:56.076Z,63.10
2019-06-01T09:21:22.560Z,61.30
2019-06-01T09:23:48.702Z,61.20
2019-06-01T09:26:14.869Z,62.80
2019-06-01T09:28:41.352Z,64.00
2019-06-01T09:31:07.747Z,63.00
2019-06-01T09:33:35.292Z,63.10
2019-06-01T09:36:02.987Z,61.90
2019-06-01T09:38:29.630Z,59.80
2019-06-01T09:40:56.128Z,59.90
2019-06-01T09:43:22.440Z,61.70
2019-06-01T09:45:53.027Z,62.20
2019-06-01T09:48:17.170Z,62.40
2019-06-01T09:50:44.196Z,62.30
2019-06-01T09:53:10.390Z,63.40
2019-06-01T09:55:36.553Z,63.70
2019-06-01T09:58:02.942Z,61.20
2019-06-01T10:00:30.350Z,62.10
2019-06-01T10:02:56.574Z,60.70
2019-06-01T10:05:22.726Z,59.80
2019-06-01T10:07:48.950Z,60.00
2019-06-01T10:10:15.422Z,60.50
2019-06-01T10:12:42.296Z,60.40
2019-06-01T10:15:11.175Z,59.80
2019-06-01T10:17:38.861Z,60.30
2019-06-01T10:20:06.008Z,61.00
2019-06-01T10:22:33.139Z,60.60
2019-06-01T10:24:59.842Z,60.80
2019-06-01T10:27:26.010Z,59.50
2019-06-01T10:29:52.233Z,59.50
2019-06-01T10:32:18.482Z,60.30
2019-06-01T10:34:44.698Z,60.10
2019-06-01T10:37:10.967Z,58.10
2019-06-01T10:39:37.271Z,58.00
2019-06-01T10:42:03.603Z,58.30
2019-06-01T10:44:29.795Z,57.80
2019-06-01T10:46:55.995Z,57.90
2019-06-01T10:49:22.166Z,58.20
2019-06-01T10:51:48.321Z,57.60
2019-06-01T10:54:14.612Z,58.00
2019-06-01T10:56:40.810Z,57.70
2019-06-01T10:59:06.951Z,58.00
2019-06-01T11:01:35.559Z,58.70
2019-06-01T11:04:01.205Z,59.60
2019-06-01T11:06:36.586Z,59.00
2019-06-01T11:08:55.431Z,58.30
2019-06-01T11:11:21.834Z,56.80
2019-06-01T11:13:48.012Z,57.40
2019-06-01T11:16:14.320Z,57.80
2019-06-01T11:18:41.864Z,58.50
2019-06-01T11:21:08.273Z,57.70
2019-06-01T11:23:35.539Z,58.10
2019-06-01T11:26:02.229Z,58.80
2019-06-01T11:28:28.830Z,58.70
2019-06-01T11:30:55.009Z,58.00
2019-06-01T11:33:21.409Z,58.30
2019-06-01T11:35:47.851Z,58.30
2019-06-01T11:38:14.056Z,58.20
2019-06-01T11:40:40.813Z,59.00
2019-06-01T11:43:07.158Z,58.50
2019-06-01T11:45:34.761Z,56.80
2019-06-01T11:48:01.085Z,57.20
2019-06-01T11:50:27.253Z,58.10
2019-06-01T11:52:53.526Z,57.80
2019-06-01T11:55:19.694Z,57.60
2019-06-01T11:57:46.029Z,57.60
2019-06-01T12:00:13.983Z,57.80
2019-06-01T12:02:40.250Z,57.80
2019-06-01T12:05:07.113Z,58.30
2019-06-01T12:07:33.706Z,58.00
2019-06-01T12:09:59.880Z,58.40
2019-06-01T12:12:26.054Z,57.70
2019-06-01T12:14:52.397Z,58.90
2019-06-01T12:17:18.939Z,57.00
2019-06-01T12:19:45.113Z,57.60
2019-06-01T12:22:11.267Z,57.20
2019-06-01T12:24:37.443Z,56.60
2019-06-01T12:27:03.795Z,58.30
2019-06-01T12:29:30.069Z,57.00
2019-06-01T12:31:56.755Z,56.30
2019-06-01T12:34:23.018Z,56.50
2019-06-01T12:36:49.281Z,55.50
2019-06-01T12:39:15.815Z,56.40
2019-06-01T12:41:42.023Z,56.00
2019-06-01T12:44:11.894Z,56.10
2019-06-01T12:46:39.665Z,55.70
2019-06-01T12:49:07.598Z,57.00
2019-06-01T12:51:34.184Z,55.80
2019-06-01T12:54:00.453Z,56.50
2019-06-01T12:56:26.639Z,55.70
2019-06-01T12:58:52.807Z,56.10
2019-06-01T13:01:19.012Z,55.70
2019-06-01T13:03:45.268Z,56.10
2019-06-01T13:06:11.515Z,55.90
2019-06-01T13:08:38.944Z,56.50
2019-06-01T13:11:05.308Z,57.20
2019-06-01T13:13:31.467Z,56.30
2019-06-01T13:15:57.631Z,56.00
2019-06-01T13:18:23.799Z,57.00
2019-06-01T13:20:49.974Z,56.60
2019-06-01T13:23:16.134Z,56.60
2019-06-01T13:25:43.455Z,56.00
2019-06-01T13:28:09.855Z,55.10
2019-06-01T13:30:36.002Z,55.40
2019-06-01T13:33:02.624Z,56.40
2019-06-01T13:35:29.612Z,56.20
2019-06-01T13:38:10.923Z,55.50
2019-06-01T13:40:23.823Z,55.40
2019-06-01T13:42:51.249Z,55.20
2019-06-01T13:45:17.755Z,55.80
2019-06-01T13:47:43.923Z,56.10
2019-06-01T13:50:10.507Z,54.70
2019-06-01T13:52:36.752Z,56.00
2019-06-01T13:55:06.255Z,55.20
2019-06-01T13:57:32.416Z,54.90
2019-06-01T13:59:58.759Z,55.20
2019-06-01T14:02:24.988Z,55.60
2019-06-01T14:04:52.179Z,55.50
2019-06-01T14:07:18.365Z,54.30
2019-06-01T14:09:45.200Z,54.90
2019-06-01T14:12:11.509Z,53.80
2019-06-01T14:14:37.648Z,54.40
2019-06-01T14:17:03.825Z,54.60
2019-06-01T14:19:30.271Z,53.30
2019-06-01T14:21:56.638Z,52.60
2019-06-01T14:24:22.846Z,52.20
2019-06-01T14:26:50.057Z,53.10
2019-06-01T14:29:16.598Z,53.00
2019-06-01T14:31:42.853Z,53.20
2019-06-01T14:34:09.000Z,53.40
2019-06-01T14:36:35.478Z,54.50
2019-06-01T14:39:01.612Z,54.80
2019-06-01T14:41:29.835Z,54.70
2019-06-01T14:43:56.382Z,54.60
2019-06-01T14:46:22.658Z,53.80
2019-06-01T14:48:49.362Z,54.40
2019-06-01T14:51:15.588Z,54.20
2019-06-01T14:53:42.968Z,55.00
2019-06-01T14:56:09.201Z,55.70
2019-06-01T14:58:35.415Z,54.80
2019-06-01T15:01:01.570Z,55.20
2019-06-01T15:03:28.018Z,54.40
2019-06-01T15:05:54.438Z,53.30
2019-06-01T15:08:20.767Z,54.10
2019-06-01T15:10:48.545Z,53.20
2019-06-01T15:13:15.136Z,52.20
2019-06-01T15:15:41.324Z,52.40
2019-06-01T15:18:07.886Z,52.60
2019-06-01T15:20:34.314Z,53.10
2019-06-01T15:23:00.487Z,53.80
2019-06-01T15:25:26.638Z,53.90
2019-06-01T15:27:52.810Z,53.10
2019-06-01T15:30:19.872Z,53.10
2019-06-01T15:32:47.205Z,53.20
2019-06-01T15:35:14.512Z,53.90
2019-06-01T15:37:40.927Z,53.70
2019-06-01T15:40:09.602Z,53.40
2019-06-01T15:42:35.840Z,54.00
2019-06-01T15:45:06.483Z,54.50
2019-06-01T15:47:32.919Z,53.10
2019-06-01T15:50:00.042Z,53.20
2019-06-01T15:52:26.733Z,52.80
2019-06-01T15:54:54.171Z,52.70
2019-06-01T15:57:20.480Z,51.70
2019-06-01T15:59:46.642Z,51.60
2019-06-01T16:02:12.791Z,52.20
2019-06-01T16:04:39.016Z,51.90
2019-06-01T16:07:05.908Z,51.60
2019-06-01T16:09:42.140Z,51.40
2019-06-01T16:12:01.715Z,52.40
2019-06-01T16:14:28.251Z,52.90
2019-06-01T16:16:55.731Z,52.80
2019-06-01T16:19:22.443Z,52.50
2019-06-01T16:21:48.642Z,52.50
2019-06-01T16:24:14.868Z,51.90
2019-06-01T16:26:41.028Z,53.00
2019-06-01T16:29:07.444Z,52.10
2019-06-01T16:31:33.635Z,52.10
2019-06-01T16:34:00.679Z,52.70
2019-06-01T16:36:27.279Z,52.60
2019-06-01T16:38:59.549Z,52.50
2019-06-01T16:41:21.597Z,52.10
2019-06-01T16:43:47.792Z,52.40
2019-06-01T16:46:14.310Z,52.80
2019-06-01T16:48:40.727Z,52.30
2019-06-01T16:51:06.897Z,52.20
2019-06-01T16:53:33.055Z,52.30
2019-06-01T16:55:59.863Z,50.60
2019-06-01T16:58:26.208Z,51.10
2019-06-01T17:00:52.750Z,51.60
2019-06-01T17:03:19.002Z,52.30
2019-06-01T17:05:45.457Z,51.70
2019-06-01T17:08:11.663Z,52.60
2019-06-01T17:10:37.909Z,52.50
2019-06-01T17:13:06.759Z,53.20
2019-06-01T17:15:32.307Z,53.40
2019-06-01T17:18:03.010Z,52.90
2019-06-01T17:20:44.199Z,52.10
2019-06-01T17:23:25.823Z,52.40
2019-06-01T17:25:38.954Z,53.00
2019-06-01T17:28:05.318Z,52.70
2019-06-01T17:30:31.683Z,52.70
2019-06-01T17:32:58.233Z,52.50
2019-06-01T17:35:24.479Z,52.60
2019-06-01T17:37:51.092Z,52.70
2019-06-01T17:40:17.667Z,52.50
2019-06-01T17:42:43.815Z,52.50
2019-06-01T17:45:10.565Z,52.20
2019-06-01T17:47:40.825Z,52.50
2019-06-01T17:50:05.548Z,52.70
2019-06-01T17:52:31.999Z,52.50
2019-06-01T17:54:58.162Z,53.00
2019-06-01T17:57:24.616Z,53.20
2019-06-01T17:59:50.815Z,53.10
2019-06-01T18:02:17.047Z,53.40
2019-06-01T18:04:43.225Z,53.10
2019-06-01T18:07:10.011Z,53.20
2019-06-01T18:09:36.544Z,53.90
2019-06-01T18:12:03.942Z,53.80
2019-06-01T18:14:30.310Z,54.00
2019-06-01T18:16:56.883Z,53.80
2019-06-01T18:19:23.312Z,54.00
2019-06-01T18:21:49.445Z,54.60
2019-06-01T18:24:15.622Z,55.10
2019-06-01T18:26:41.794Z,55.10
2019-06-01T18:29:08.608Z,54.80
2019-06-01T18:31:34.910Z,54.60
2019-06-01T18:34:01.116Z,55.30
2019-06-01T18:36:27.546Z,55.20
2019-06-01T18:38:53.683Z,55.70
2019-06-01T18:41:20.349Z,56.10
2019-06-01T18:43:46.579Z,56.90
2019-06-01T18:46:14.263Z,56.60
2019-06-01T18:48:40.736Z,56.40
2019-06-01T18:51:08.119Z,57.10
2019-06-01T18:53:34.582Z,58.40
2019-06-01T18:56:00.751Z,58.80
2019-06-01T18:58:27.018Z,59.10
2019-06-01T19:00:54.229Z,59.80
2019-06-01T19:03:20.758Z,59.80
2019-06-01T19:05:46.950Z,59.60
2019-06-01T19:08:13.672Z,59.40
2019-06-01T19:10:40.149Z,58.70
2019-06-01T19:13:07.550Z,58.70
2019-06-01T19:15:34.355Z,58.60
2019-06-01T19:18:00.560Z,60.00
2019-06-01T19:20:27.109Z,60.90
2019-06-01T19:22:53.326Z,61.60
2019-06-01T19:25:19.774Z,62.30
2019-06-01T19:27:45.991Z,61.90
2019-06-01T19:30:17.490Z,62.00
2019-06-01T19:32:43.977Z,61.60
2019-06-01T19:35:11.489Z,62.90
2019-06-01T19:37:39.243Z,63.00
2019-06-01T19:40:07.006Z,63.00
2019-06-01T19:42:35.547Z,63.70
2019-06-01T19:45:04.958Z,63.10
2019-06-01T19:47:31.400Z,64.10
2019-06-01T19:49:57.936Z,64.80
2019-06-01T19:52:24.161Z,65.50
2019-06-01T19:54:50.300Z,64.70
2019-06-01T19:57:20.362Z,67.10
2019-06-01T19:59:44.550Z,67.50
2019-06-01T20:02:25.101Z,67.20
2019-06-01T20:04:39.004Z,66.70
2019-06-01T20:07:05.526Z,67.50
2019-06-01T20:09:31.728Z,68.60
2019-06-01T20:12:01.929Z,68.30
2019-06-01T20:14:26.306Z,70.60
2019-06-01T20:16:52.595Z,70.50
2019-06-01T20:19:19.823Z,70.80
2019-06-01T20:21:46.110Z,71.10
2019-06-01T20:24:13.328Z,71.50
2019-06-01T20:26:45.820Z,71.50
2019-06-01T20:29:07.598Z,72.10
2019-06-01T20:31:34.123Z,72.80
2019-06-01T20:34:00.317Z,71.10
2019-06-01T20:36:26.509Z,72.80
2019-06-01T20:38:52.660Z,72.90
2019-06-01T20:41:18.816Z,73.50
2019-06-01T20:43:45.020Z,72.80
2019-06-01T20:46:12.753Z,74.20
2019-06-01T20:48:39.302Z,74.90
2019-06-01T20:51:05.435Z,74.60
2019-06-01T20:53:31.876Z,74.60
2019-06-01T20:55:58.019Z,75.60
2019-06-01T20:58:24.935Z,77.10
2019-06-01T21:00:51.327Z,77.60
2019-06-01T21:03:17.769Z,78.00
2019-06-01T21:05:44.386Z,78.10
2019-06-01T21:08:10.691Z,77.00
2019-06-01T21:10:37.215Z,78.20
2019-06-01T21:13:07.581Z,78.20
2019-06-01T21:15:32.959Z,78.10
2019-06-01T21:17:59.140Z,78.70
2019-06-01T21:20:29.793Z,79.80
2019-06-01T21:22:53.703Z,79.90
2019-06-01T21:25:20.839Z,80.00
2019-06-01T21:27:47.230Z,79.40
2019-06-01T21:30:16.076Z,79.40
2019-06-01T21:32:42.071Z,77.80
2019-06-01T21:35:08.826Z,79.60
2019-06-01T21:37:35.285Z,80.60
2019-06-01T21:40:06.561Z,80.80
2019-06-01T21:42:32.859Z,81.10
2019-06-01T21:44:59.329Z,81.80
2019-06-01T21:47:25.891Z,81.90
2019-06-01T21:49:53.125Z,82.40
2019-06-01T21:52:20.284Z,82.90
2019-06-01T21:54:46.445Z,82.90
2019-06-01T21:57:13.860Z,83.60
2019-06-01T21:59:40.286Z,84.00
2019-06-01T22:02:06.628Z,84.20
2019-06-01T22:04:32.907Z,85.00
2019-06-01T22:06:59.449Z,86.20
2019-06-01T22:09:25.631Z,86.70
2019-06-01T22:11:51.788Z,87.00
2019-06-01T22:14:17.933Z,87.10
2019-06-01T22:16:44.102Z,87.50
2019-06-01T22:19:10.610Z,88.60
2019-06-01T22:21:36.765Z,88.70
2019-06-01T22:24:03.117Z,89.00
2019-06-01T22:26:29.252Z,88.20
2019-06-01T22:28:55.479Z,88.80
2019-06-01T22:31:22.305Z,89.20
2019-06-01T22:33:48.729Z,89.50
2019-06-01T22:36:15.013Z,90.30
2019-06-01T22:38:41.540Z,90.50
2019-06-01T22:41:07.689Z,90.80
2019-06-01T22:43:45.454Z,90.80
2019-06-01T22:46:01.918Z,90.60
2019-06-01T22:48:29.191Z,90.60
2019-06-01T22:50:55.524Z,90.60
2019-06-01T22:53:22.025Z,90.40
2019-06-01T22:55:48.361Z,90.40
2019-06-01T22:58:14.489Z,90.50
2019-06-01T23:00:41.086Z,90.80
2019-06-01T23:03:07.228Z,90.90
2019-06-01T23:05:33.407Z,91.50
2019-06-01T23:07:59.568Z,91.60
2019-06-01T23:10:29.968Z,91.90
2019-06-01T23:12:54.354Z,92.00
2019-06-01T23:15:21.394Z,92.30
2019-06-01T23:17:47.766Z,91.90
2019-06-01T23:20:16.052Z,92.00
2019-06-01T23:22:42.269Z,92.50
2019-06-01T23:25:08.626Z,92.50
2019-06-01T23:27:35.111Z,92.80
2019-06-01T23:30:02.467Z,92.80
2019-06-01T23:32:28.710Z,92.90
2019-06-01T23:34:54.875Z,93.00
2019-06-01T23:37:22.645Z,93.20
2019-06-01T23:39:48.958Z,93.30
2019-06-01T23:42:15.490Z,93.00
2019-06-01T23:44:41.678Z,93.10
2019-06-01T23:47:07.834Z,93.20
2019-06-01T23:49:34.093Z,93.50
2019-06-01T23:52:00.361Z,93.10
2019-06-01T23:54:27.610Z,93.40
2019-06-01T23:56:54.295Z,93.70
2019-06-01T23:59:20.442Z,93.70
